sensor_id;sensor_type;location;lat;lon;timestamp;temperature;humidity
65470;DHT22;52067;50.710;14.492;2022-07-05T00:00:10;19.06;66.34
65470;DHT22;52067;50.710;14.492;2022-07-05T00:02:36;18.97;66.55
65470;DHT22;52067;50.710;14.492;2022-07-05T00:05:01;18.84;67.30
65470;DHT22;52067;50.710;14.492;2022-07-05T00:07:27;18.71;67.36
65470;DHT22;52067;50.710;14.492;2022-07-05T00:09:54;18.64;67.55
65470;DHT22;52067;50.710;14.492;2022-07-05T00:12:27;18.64;70.12
65470;DHT22;52067;50.710;14.492;2022-07-05T00:14:54;18.66;67.11
65470;DHT22;52067;50.710;14.492;2022-07-05T00:17:19;18.79;66.46
65470;DHT22;52067;50.710;14.492;2022-07-05T00:19:45;18.81;65.45
65470;DHT22;52067;50.710;14.492;2022-07-05T00:22:11;18.87;68.17
65470;DHT22;52067;50.710;14.492;2022-07-05T00:24:36;18.71;66.60
65470;DHT22;52067;50.710;14.492;2022-07-05T00:27:04;18.74;67.01
65470;DHT22;52067;50.710;14.492;2022-07-05T00:29:30;18.70;65.53
65470;DHT22;52067;50.710;14.492;2022-07-05T00:31:55;18.60;64.59
65470;DHT22;52067;50.710;14.492;2022-07-05T00:34:21;18.67;64.11
65470;DHT22;52067;50.710;14.492;2022-07-05T00:36:46;18.69;64.34
65470;DHT22;52067;50.710;14.492;2022-07-05T00:39:12;18.63;64.16
65470;DHT22;52067;50.710;14.492;2022-07-05T00:41:37;18.64;63.44
65470;DHT22;52067;50.710;14.492;2022-07-05T00:44:05;18.74;63.14
65470;DHT22;52067;50.710;14.492;2022-07-05T00:46:31;18.87;61.86
65470;DHT22;52067;50.710;14.492;2022-07-05T00:48:58;18.73;64.64
65470;DHT22;52067;50.710;14.492;2022-07-05T00:51:25;18.38;67.33
65470;DHT22;52067;50.710;14.492;2022-07-05T00:53:51;17.92;69.30
65470;DHT22;52067;50.710;14.492;2022-07-05T00:56:22;18.13;67.65
65470;DHT22;52067;50.710;14.492;2022-07-05T00:58:48;18.00;68.61
65470;DHT22;52067;50.710;14.492;2022-07-05T01:01:14;17.94;70.96
65470;DHT22;52067;50.710;14.492;2022-07-05T01:03:41;17.92;70.49
65470;DHT22;52067;50.710;14.492;2022-07-05T01:06:09;18.01;69.22
65470;DHT22;52067;50.710;14.492;2022-07-05T01:08:37;18.00;70.19
65470;DHT22;52067;50.710;14.492;2022-07-05T01:11:03;17.74;70.22
65470;DHT22;52067;50.710;14.492;2022-07-05T01:13:29;17.57;70.89
65470;DHT22;52067;50.710;14.492;2022-07-05T01:15:55;17.44;71.35
65470;DHT22;52067;50.710;14.492;2022-07-05T01:18:20;17.47;72.29
65470;DHT22;52067;50.710;14.492;2022-07-05T01:20:50;17.09;76.12
65470;DHT22;52067;50.710;14.492;2022-07-05T01:23:17;16.99;77.29
65470;DHT22;52067;50.710;14.492;2022-07-05T01:25:44;17.20;73.40
65470;DHT22;52067;50.710;14.492;2022-07-05T01:28:10;17.05;74.19
65470;DHT22;52067;50.710;14.492;2022-07-05T01:30:36;17.05;75.33
65470;DHT22;52067;50.710;14.492;2022-07-05T01:33:04;17.02;76.33
65470;DHT22;52067;50.710;14.492;2022-07-05T01:35:29;17.08;75.07
65470;DHT22;52067;50.710;14.492;2022-07-05T01:37:55;17.13;74.76
65470;DHT22;52067;50.710;14.492;2022-07-05T01:40:20;17.12;74.67
65470;DHT22;52067;50.710;14.492;2022-07-05T01:42:46;17.02;75.20
65470;DHT22;52067;50.710;14.492;2022-07-05T01:45:12;17.03;75.38
65470;DHT22;52067;50.710;14.492;2022-07-05T01:47:44;16.96;77.26
65470;DHT22;52067;50.710;14.492;2022-07-05T01:50:12;17.05;76.65
65470;DHT22;52067;50.710;14.492;2022-07-05T01:52:39;17.06;76.73
65470;DHT22;52067;50.710;14.492;2022-07-05T01:55:07;16.91;78.39
65470;DHT22;52067;50.710;14.492;2022-07-05T01:57:32;16.99;77.58
65470;DHT22;52067;50.710;14.492;2022-07-05T01:59:58;16.86;78.47
65470;DHT22;52067;50.710;14.492;2022-07-05T02:02:23;16.68;79.66
65470;DHT22;52067;50.710;14.492;2022-07-05T02:04:48;16.85;77.49
65470;DHT22;52067;50.710;14.492;2022-07-05T02:07:14;16.72;78.43
65470;DHT22;52067;50.710;14.492;2022-07-05T02:09:39;16.94;77.22
65470;DHT22;52067;50.710;14.492;2022-07-05T02:12:05;17.08;76.18
65470;DHT22;52067;50.710;14.492;2022-07-05T02:14:31;17.05;76.35
65470;DHT22;52067;50.710;14.492;2022-07-05T02:16:56;17.12;76.97
65470;DHT22;52067;50.710;14.492;2022-07-05T02:19:22;17.08;76.93
65470;DHT22;52067;50.710;14.492;2022-07-05T02:21:48;17.05;77.16
65470;DHT22;52067;50.710;14.492;2022-07-05T02:24:13;17.05;78.12
65470;DHT22;52067;50.710;14.492;2022-07-05T02:26:38;17.03;78.03
65470;DHT22;52067;50.710;14.492;2022-07-05T02:29:04;17.05;77.85
65470;DHT22;52067;50.710;14.492;2022-07-05T02:31:31;17.06;77.58
65470;DHT22;52067;50.710;14.492;2022-07-05T02:33:56;16.94;78.30
65470;DHT22;52067;50.710;14.492;2022-07-05T02:36:22;16.98;77.96
65470;DHT22;52067;50.710;14.492;2022-07-05T02:38:47;16.99;78.01
65470;DHT22;52067;50.710;14.492;2022-07-05T02:41:13;16.96;77.56
65470;DHT22;52067;50.710;14.492;2022-07-05T02:43:39;16.89;77.45
65470;DHT22;52067;50.710;14.492;2022-07-05T02:46:06;16.61;79.51
65470;DHT22;52067;50.710;14.492;2022-07-05T02:48:33;16.10;81.58
65470;DHT22;52067;50.710;14.492;2022-07-05T02:50:59;16.43;79.60
65470;DHT22;52067;50.710;14.492;2022-07-05T02:53:24;16.58;79.70
65470;DHT22;52067;50.710;14.492;2022-07-05T02:55:50;16.68;79.33
65470;DHT22;52067;50.710;14.492;2022-07-05T02:58:15;16.65;79.83
65470;DHT22;52067;50.710;14.492;2022-07-05T03:00:43;16.75;79.11
65470;DHT22;52067;50.710;14.492;2022-07-05T03:03:08;16.68;78.25
65470;DHT22;52067;50.710;14.492;2022-07-05T03:05:34;16.82;78.43
65470;DHT22;52067;50.710;14.492;2022-07-05T03:07:59;16.86;76.91
65470;DHT22;52067;50.710;14.492;2022-07-05T03:10:24;16.95;78.11
65470;DHT22;52067;50.710;14.492;2022-07-05T03:12:51;16.99;75.93
65470;DHT22;52067;50.710;14.492;2022-07-05T03:15:16;17.11;74.79
65470;DHT22;52067;50.710;14.492;2022-07-05T03:17:42;16.96;73.97
65470;DHT22;52067;50.710;14.492;2022-07-05T03:20:08;17.20;73.27
65470;DHT22;52067;50.710;14.492;2022-07-05T03:22:33;17.16;76.30
65470;DHT22;52067;50.710;14.492;2022-07-05T03:24:59;17.05;75.47
65470;DHT22;52067;50.710;14.492;2022-07-05T03:27:24;16.89;76.92
65470;DHT22;52067;50.710;14.492;2022-07-05T03:29:49;16.61;77.47
65470;DHT22;52067;50.710;14.492;2022-07-05T03:32:15;16.60;74.93
65470;DHT22;52067;50.710;14.492;2022-07-05T03:34:40;16.64;76.28
65470;DHT22;52067;50.710;14.492;2022-07-05T03:37:05;16.74;76.84
65470;DHT22;52067;50.710;14.492;2022-07-05T03:39:31;16.69;77.32
65470;DHT22;52067;50.710;14.492;2022-07-05T03:41:56;16.64;77.03
65470;DHT22;52067;50.710;14.492;2022-07-05T03:44:22;16.58;77.58
65470;DHT22;52067;50.710;14.492;2022-07-05T03:46:47;16.67;76.95
65470;DHT22;52067;50.710;14.492;2022-07-05T03:49:12;16.64;77.81
65470;DHT22;52067;50.710;14.492;2022-07-05T03:51:38;16.40;79.52
65470;DHT22;52067;50.710;14.492;2022-07-05T03:54:03;16.14;78.94
65470;DHT22;52067;50.710;14.492;2022-07-05T03:56:29;16.31;79.50
65470;DHT22;52067;50.710;14.492;2022-07-05T03:58:55;16.12;80.59
65470;DHT22;52067;50.710;14.492;2022-07-05T04:01:20;15.95;81.77
65470;DHT22;52067;50.710;14.492;2022-07-05T04:03:45;16.28;80.57
65470;DHT22;52067;50.710;14.492;2022-07-05T04:06:11;16.37;80.59
65470;DHT22;52067;50.710;14.492;2022-07-05T04:08:37;16.23;81.13
65470;DHT22;52067;50.710;14.492;2022-07-05T04:11:04;16.43;79.25
65470;DHT22;52067;50.710;14.492;2022-07-05T04:13:30;16.37;80.58
65470;DHT22;52067;50.710;14.492;2022-07-05T04:15:55;16.36;79.25
65470;DHT22;52067;50.710;14.492;2022-07-05T04:18:21;16.47;79.33
65470;DHT22;52067;50.710;14.492;2022-07-05T04:20:47;16.45;79.93
65470;DHT22;52067;50.710;14.492;2022-07-05T04:23:12;16.41;80.11
65470;DHT22;52067;50.710;14.492;2022-07-05T04:25:38;16.53;79.88
65470;DHT22;52067;50.710;14.492;2022-07-05T04:28:04;16.58;79.14
65470;DHT22;52067;50.710;14.492;2022-07-05T04:30:29;16.57;79.47
65470;DHT22;52067;50.710;14.492;2022-07-05T04:32:54;16.41;79.49
65470;DHT22;52067;50.710;14.492;2022-07-05T04:35:21;16.50;78.93
65470;DHT22;52067;50.710;14.492;2022-07-05T04:37:47;16.58;78.72
65470;DHT22;52067;50.710;14.492;2022-07-05T04:40:13;16.54;78.75
65470;DHT22;52067;50.710;14.492;2022-07-05T04:42:38;16.13;80.40
65470;DHT22;52067;50.710;14.492;2022-07-05T04:45:05;16.33;80.57
65470;DHT22;52067;50.710;14.492;2022-07-05T04:47:31;16.21;80.94
65470;DHT22;52067;50.710;14.492;2022-07-05T04:49:57;16.03;81.45
65470;DHT22;52067;50.710;14.492;2022-07-05T04:52:24;16.10;81.02
65470;DHT22;52067;50.710;14.492;2022-07-05T04:54:49;16.27;80.06
65470;DHT22;52067;50.710;14.492;2022-07-05T04:57:14;16.33;80.17
65470;DHT22;52067;50.710;14.492;2022-07-05T04:59:40;16.60;80.24
65470;DHT22;52067;50.710;14.492;2022-07-05T05:02:05;16.61;80.43
65470;DHT22;52067;50.710;14.492;2022-07-05T05:04:30;16.75;80.56
65470;DHT22;52067;50.710;14.492;2022-07-05T05:06:56;16.69;80.10
65470;DHT22;52067;50.710;14.492;2022-07-05T05:09:21;16.79;79.79
65470;DHT22;52067;50.710;14.492;2022-07-05T05:11:47;17.05;79.17
65470;DHT22;52067;50.710;14.492;2022-07-05T05:14:13;17.13;79.31
65470;DHT22;52067;50.710;14.492;2022-07-05T05:16:38;17.19;80.98
65470;DHT22;52067;50.710;14.492;2022-07-05T05:19:03;17.42;78.93
65470;DHT22;52067;50.710;14.492;2022-07-05T05:21:29;17.67;78.08
65470;DHT22;52067;50.710;14.492;2022-07-05T05:23:54;17.59;77.78
65470;DHT22;52067;50.710;14.492;2022-07-05T05:26:20;17.71;77.17
65470;DHT22;52067;50.710;14.492;2022-07-05T05:28:45;18.00;75.96
65470;DHT22;52067;50.710;14.492;2022-07-05T05:31:10;18.19;76.00
65470;DHT22;52067;50.710;14.492;2022-07-05T05:33:36;18.26;76.42
65470;DHT22;52067;50.710;14.492;2022-07-05T05:36:02;18.57;75.87
65470;DHT22;52067;50.710;14.492;2022-07-05T05:38:27;18.73;72.57
65470;DHT22;52067;50.710;14.492;2022-07-05T05:40:53;18.87;72.85
65470;DHT22;52067;50.710;14.492;2022-07-05T05:43:18;19.15;70.03
65470;DHT22;52067;50.710;14.492;2022-07-05T05:45:44;19.34;70.99
65470;DHT22;52067;50.710;14.492;2022-07-05T05:48:09;19.35;71.04
65470;DHT22;52067;50.710;14.492;2022-07-05T05:50:37;19.52;70.81
65470;DHT22;52067;50.710;14.492;2022-07-05T05:53:04;19.59;70.83
65470;DHT22;52067;50.710;14.492;2022-07-05T05:55:30;19.76;70.93
65470;DHT22;52067;50.710;14.492;2022-07-05T05:57:56;19.92;69.00
65470;DHT22;52067;50.710;14.492;2022-07-05T06:00:27;19.89;66.94
65470;DHT22;52067;50.710;14.492;2022-07-05T06:02:52;20.09;69.92
65470;DHT22;52067;50.710;14.492;2022-07-05T06:05:18;20.33;64.82
65470;DHT22;52067;50.710;14.492;2022-07-05T06:10:09;20.69;63.75
65470;DHT22;52067;50.710;14.492;2022-07-05T06:12:35;20.93;63.46
65470;DHT22;52067;50.710;14.492;2022-07-05T06:15:00;20.96;62.75
65470;DHT22;52067;50.710;14.492;2022-07-05T06:17:26;21.14;59.47
65470;DHT22;52067;50.710;14.492;2022-07-05T06:19:51;21.26;58.28
65470;DHT22;52067;50.710;14.492;2022-07-05T06:22:16;21.26;58.32
65470;DHT22;52067;50.710;14.492;2022-07-05T06:24:42;21.13;63.53
65470;DHT22;52067;50.710;14.492;2022-07-05T06:27:08;21.22;64.25
65470;DHT22;52067;50.710;14.492;2022-07-05T06:29:33;20.79;63.59
65470;DHT22;52067;50.710;14.492;2022-07-05T06:31:59;21.03;64.84
65470;DHT22;52067;50.710;14.492;2022-07-05T06:34:25;20.93;63.35
65470;DHT22;52067;50.710;14.492;2022-07-05T06:36:50;21.32;63.85
65470;DHT22;52067;50.710;14.492;2022-07-05T06:39:16;21.34;63.38
65470;DHT22;52067;50.710;14.492;2022-07-05T06:41:41;21.10;63.25
65470;DHT22;52067;50.710;14.492;2022-07-05T06:44:06;21.51;62.10
65470;DHT22;52067;50.710;14.492;2022-07-05T06:46:32;21.61;64.82
65470;DHT22;52067;50.710;14.492;2022-07-05T06:48:57;21.44;65.55
65470;DHT22;52067;50.710;14.492;2022-07-05T06:51:22;21.77;64.26
65470;DHT22;52067;50.710;14.492;2022-07-05T06:53:48;21.80;61.68
65470;DHT22;52067;50.710;14.492;2022-07-05T06:56:13;21.64;62.22
65470;DHT22;52067;50.710;14.492;2022-07-05T06:58:38;21.70;62.16
65470;DHT22;52067;50.710;14.492;2022-07-05T07:01:04;21.92;62.99
65470;DHT22;52067;50.710;14.492;2022-07-05T07:03:29;22.08;60.60
65470;DHT22;52067;50.710;14.492;2022-07-05T07:05:55;22.22;59.77
65470;DHT22;52067;50.710;14.492;2022-07-05T07:08:20;22.38;53.64
65470;DHT22;52067;50.710;14.492;2022-07-05T07:11:04;22.61;57.63
65470;DHT22;52067;50.710;14.492;2022-07-05T07:13:30;22.87;58.17
65470;DHT22;52067;50.710;14.492;2022-07-05T07:15:56;22.91;52.62
65470;DHT22;52067;50.710;14.492;2022-07-05T07:18:21;22.96;49.67
65470;DHT22;52067;50.710;14.492;2022-07-05T07:20:46;22.56;49.68
65470;DHT22;52067;50.710;14.492;2022-07-05T07:23:12;22.46;54.21
65470;DHT22;52067;50.710;14.492;2022-07-05T07:25:37;22.71;48.34
65470;DHT22;52067;50.710;14.492;2022-07-05T07:28:03;22.32;48.87
65470;DHT22;52067;50.710;14.492;2022-07-05T07:30:30;22.15;48.50
65470;DHT22;52067;50.710;14.492;2022-07-05T07:32:55;22.16;50.05
65470;DHT22;52067;50.710;14.492;2022-07-05T07:35:21;22.29;50.81
65470;DHT22;52067;50.710;14.492;2022-07-05T07:37:48;22.39;49.49
65470;DHT22;52067;50.710;14.492;2022-07-05T07:40:14;22.64;51.86
65470;DHT22;52067;50.710;14.492;2022-07-05T07:42:39;22.64;50.33
65470;DHT22;52067;50.710;14.492;2022-07-05T07:45:05;22.30;49.71
65470;DHT22;52067;50.710;14.492;2022-07-05T07:47:32;22.74;47.34
65470;DHT22;52067;50.710;14.492;2022-07-05T07:49:58;22.96;51.08
65470;DHT22;52067;50.710;14.492;2022-07-05T07:52:23;23.28;49.76
65470;DHT22;52067;50.710;14.492;2022-07-05T07:54:48;22.96;49.73
65470;DHT22;52067;50.710;14.492;2022-07-05T07:57:14;22.88;47.07
65470;DHT22;52067;50.710;14.492;2022-07-05T07:59:39;22.74;48.24
65470;DHT22;52067;50.710;14.492;2022-07-05T08:02:05;23.03;51.24
65470;DHT22;52067;50.710;14.492;2022-07-05T08:04:35;23.08;48.81
65470;DHT22;52067;50.710;14.492;2022-07-05T08:07:00;23.27;45.97
65470;DHT22;52067;50.710;14.492;2022-07-05T08:09:33;22.97;48.83
65470;DHT22;52067;50.710;14.492;2022-07-05T08:11:58;23.35;47.93
65470;DHT22;52067;50.710;14.492;2022-07-05T08:14:26;23.22;53.54
65470;DHT22;52067;50.710;14.492;2022-07-05T08:16:52;23.48;50.80
65470;DHT22;52067;50.710;14.492;2022-07-05T08:19:19;23.90;49.72
65470;DHT22;52067;50.710;14.492;2022-07-05T08:22:04;23.70;48.12
65470;DHT22;52067;50.710;14.492;2022-07-05T08:24:29;23.80;48.23
65470;DHT22;52067;50.710;14.492;2022-07-05T08:26:55;23.58;49.84
65470;DHT22;52067;50.710;14.492;2022-07-05T08:29:20;23.70;47.01
65470;DHT22;52067;50.710;14.492;2022-07-05T08:31:47;24.33;49.25
65470;DHT22;52067;50.710;14.492;2022-07-05T08:34:15;24.40;48.47
65470;DHT22;52067;50.710;14.492;2022-07-05T08:36:40;23.99;44.37
65470;DHT22;52067;50.710;14.492;2022-07-05T08:39:09;24.23;46.75
65470;DHT22;52067;50.710;14.492;2022-07-05T08:41:37;23.86;50.66
65470;DHT22;52067;50.710;14.492;2022-07-05T08:44:03;23.69;46.77
65470;DHT22;52067;50.710;14.492;2022-07-05T08:46:34;23.32;51.00
65470;DHT22;52067;50.710;14.492;2022-07-05T08:49:01;23.65;50.79
65470;DHT22;52067;50.710;14.492;2022-07-05T08:51:33;23.55;49.86
65470;DHT22;52067;50.710;14.492;2022-07-05T08:53:59;23.87;46.35
65470;DHT22;52067;50.710;14.492;2022-07-05T08:56:25;23.66;47.68
65470;DHT22;52067;50.710;14.492;2022-07-05T08:58:50;24.04;48.19
65470;DHT22;52067;50.710;14.492;2022-07-05T09:01:16;23.89;45.28
65470;DHT22;52067;50.710;14.492;2022-07-05T09:03:50;24.40;48.94
65470;DHT22;52067;50.710;14.492;2022-07-05T09:06:18;24.31;48.75
65470;DHT22;52067;50.710;14.492;2022-07-05T09:08:44;24.10;50.60
65470;DHT22;52067;50.710;14.492;2022-07-05T09:11:12;24.10;48.59
65470;DHT22;52067;50.710;14.492;2022-07-05T09:13:39;24.38;45.77
65470;DHT22;52067;50.710;14.492;2022-07-05T09:16:05;24.43;45.39
65470;DHT22;52067;50.710;14.492;2022-07-05T09:18:47;24.18;44.13
65470;DHT22;52067;50.710;14.492;2022-07-05T09:23:38;24.64;49.12
65470;DHT22;52067;50.710;14.492;2022-07-05T09:26:04;24.73;48.07
65470;DHT22;52067;50.710;14.492;2022-07-05T09:28:29;24.40;51.10
65470;DHT22;52067;50.710;14.492;2022-07-05T09:30:54;24.60;49.14
65470;DHT22;52067;50.710;14.492;2022-07-05T09:33:20;24.78;49.74
65470;DHT22;52067;50.710;14.492;2022-07-05T09:35:53;24.83;44.79
65470;DHT22;52067;50.710;14.492;2022-07-05T09:38:23;24.75;44.86
65470;DHT22;52067;50.710;14.492;2022-07-05T09:40:54;24.57;43.48
65470;DHT22;52067;50.710;14.492;2022-07-05T09:43:27;24.43;46.21
65470;DHT22;52067;50.710;14.492;2022-07-05T09:45:57;24.83;46.56
65470;DHT22;52067;50.710;14.492;2022-07-05T09:48:24;24.38;48.26
65470;DHT22;52067;50.710;14.492;2022-07-05T09:50:50;24.48;46.50
65470;DHT22;52067;50.710;14.492;2022-07-05T09:53:19;24.13;47.34
65470;DHT22;52067;50.710;14.492;2022-07-05T09:56:01;24.31;47.22
65470;DHT22;52067;50.710;14.492;2022-07-05T09:58:27;24.85;43.78
65470;DHT22;52067;50.710;14.492;2022-07-05T10:00:53;24.98;43.86
65470;DHT22;52067;50.710;14.492;2022-07-05T10:03:18;24.62;47.15
65470;DHT22;52067;50.710;14.492;2022-07-05T10:05:43;24.28;45.57
65470;DHT22;52067;50.710;14.492;2022-07-05T10:08:10;23.92;45.82
65470;DHT22;52067;50.710;14.492;2022-07-05T10:10:38;24.30;48.24
65470;DHT22;52067;50.710;14.492;2022-07-05T10:13:05;24.76;48.69
65470;DHT22;52067;50.710;14.492;2022-07-05T10:15:37;24.38;44.16
65470;DHT22;52067;50.710;14.492;2022-07-05T10:18:12;25.12;49.28
65470;DHT22;52067;50.710;14.492;2022-07-05T10:20:39;25.33;45.89
65470;DHT22;52067;50.710;14.492;2022-07-05T10:25:37;25.49;44.57
65470;DHT22;52067;50.710;14.492;2022-07-05T10:28:04;25.15;40.30
65470;DHT22;52067;50.710;14.492;2022-07-05T10:30:30;25.80;39.86
65470;DHT22;52067;50.710;14.492;2022-07-05T10:33:02;25.29;43.76
65470;DHT22;52067;50.710;14.492;2022-07-05T10:35:28;25.39;42.74
65470;DHT22;52067;50.710;14.492;2022-07-05T10:37:58;25.81;41.43
65470;DHT22;52067;50.710;14.492;2022-07-05T10:40:24;25.92;46.84
65470;DHT22;52067;50.710;14.492;2022-07-05T10:42:51;26.05;41.58
65470;DHT22;52067;50.710;14.492;2022-07-05T10:45:30;26.36;44.64
65470;DHT22;52067;50.710;14.492;2022-07-05T10:48:23;26.91;44.58
65470;DHT22;52067;50.710;14.492;2022-07-05T10:50:57;29.57;32.80
65470;DHT22;52067;50.710;14.492;2022-07-05T10:53:28;28.23;37.32
65470;DHT22;52067;50.710;14.492;2022-07-05T11:11:33;29.98;36.25
65470;DHT22;52067;50.710;14.492;2022-07-05T11:16:47;32.48;31.37
65470;DHT22;52067;50.710;14.492;2022-07-05T11:19:17;34.49;29.32
65470;DHT22;52067;50.710;14.492;2022-07-05T11:22:04;33.04;30.69
65470;DHT22;52067;50.710;14.492;2022-07-05T11:24:34;30.83;34.47
65470;DHT22;52067;50.710;14.492;2022-07-05T11:27:02;28.69;35.41
65470;DHT22;52067;50.710;14.492;2022-07-05T11:29:45;27.08;37.74
65470;DHT22;52067;50.710;14.492;2022-07-05T11:32:15;27.48;37.11
65470;DHT22;52067;50.710;14.492;2022-07-05T11:34:42;27.46;37.74
65470;DHT22;52067;50.710;14.492;2022-07-05T11:39:43;30.24;32.75
65470;DHT22;52067;50.710;14.492;2022-07-05T11:42:10;28.21;33.67
65470;DHT22;52067;50.710;14.492;2022-07-05T11:44:36;28.21;35.39
65470;DHT22;52067;50.710;14.492;2022-07-05T11:47:03;27.11;38.93
65470;DHT22;52067;50.710;14.492;2022-07-05T11:49:28;26.14;39.58
65470;DHT22;52067;50.710;14.492;2022-07-05T11:51:58;25.57;39.32
65470;DHT22;52067;50.710;14.492;2022-07-05T11:54:27;26.57;38.35
65470;DHT22;52067;50.710;14.492;2022-07-05T11:56:56;26.61;39.60
65470;DHT22;52067;50.710;14.492;2022-07-05T11:59:23;25.82;40.29
65470;DHT22;52067;50.710;14.492;2022-07-05T12:01:49;26.12;37.10
65470;DHT22;52067;50.710;14.492;2022-07-05T12:04:29;26.94;35.10
65470;DHT22;52067;50.710;14.492;2022-07-05T12:06:55;26.14;38.17
65470;DHT22;52067;50.710;14.492;2022-07-05T12:09:25;25.63;41.33
65470;DHT22;52067;50.710;14.492;2022-07-05T12:11:51;26.09;38.81
65470;DHT22;52067;50.710;14.492;2022-07-05T12:14:35;25.97;38.35
65470;DHT22;52067;50.710;14.492;2022-07-05T12:17:17;27.63;39.02
65470;DHT22;52067;50.710;14.492;2022-07-05T12:19:42;28.31;34.62
65470;DHT22;52067;50.710;14.492;2022-07-05T12:22:09;27.90;37.43
65470;DHT22;52067;50.710;14.492;2022-07-05T12:24:34;27.23;39.09
65470;DHT22;52067;50.710;14.492;2022-07-05T12:27:00;31.08;34.52
65470;DHT22;52067;50.710;14.492;2022-07-05T12:29:26;29.60;31.99
65470;DHT22;52067;50.710;14.492;2022-07-05T12:32:02;28.33;36.61
65470;DHT22;52067;50.710;14.492;2022-07-05T12:34:28;27.31;41.35
65470;DHT22;52067;50.710;14.492;2022-07-05T12:36:54;28.33;38.40
65470;DHT22;52067;50.710;14.492;2022-07-05T12:39:20;30.35;29.63
65470;DHT22;52067;50.710;14.492;2022-07-05T12:41:45;31.55;32.14
65470;DHT22;52067;50.710;14.492;2022-07-05T12:44:11;32.20;29.19
65470;DHT22;52067;50.710;14.492;2022-07-05T12:46:38;29.54;33.56
65470;DHT22;52067;50.710;14.492;2022-07-05T12:49:04;27.76;32.53
65470;DHT22;52067;50.710;14.492;2022-07-05T12:51:34;26.35;35.82
65470;DHT22;52067;50.710;14.492;2022-07-05T12:54:00;27.49;37.09
65470;DHT22;52067;50.710;14.492;2022-07-05T12:56:52;28.83;37.80
65470;DHT22;52067;50.710;14.492;2022-07-05T13:00:06;30.00;32.87
65470;DHT22;52067;50.710;14.492;2022-07-05T13:02:38;32.63;25.74
65470;DHT22;52067;50.710;14.492;2022-07-05T13:05:06;32.33;26.86
65470;DHT22;52067;50.710;14.492;2022-07-05T13:07:32;31.30;32.46
65470;DHT22;52067;50.710;14.492;2022-07-05T13:10:13;33.59;25.75
65470;DHT22;52067;50.710;14.492;2022-07-05T13:12:39;33.63;27.20
65470;DHT22;52067;50.710;14.492;2022-07-05T13:15:05;33.91;27.62
65470;DHT22;52067;50.710;14.492;2022-07-05T13:17:30;31.68;28.03
65470;DHT22;52067;50.710;14.492;2022-07-05T13:19:56;33.93;24.07
65470;DHT22;52067;50.710;14.492;2022-07-05T13:22:22;32.68;27.16
65470;DHT22;52067;50.710;14.492;2022-07-05T13:24:47;30.35;30.06
65470;DHT22;52067;50.710;14.492;2022-07-05T13:27:13;32.38;27.32
65470;DHT22;52067;50.710;14.492;2022-07-05T13:29:39;33.21;24.51
65470;DHT22;52067;50.710;14.492;2022-07-05T13:32:05;30.63;29.41
65470;DHT22;52067;50.710;14.492;2022-07-05T13:34:31;30.63;29.92
65470;DHT22;52067;50.710;14.492;2022-07-05T13:36:57;29.43;31.08
65470;DHT22;52067;50.710;14.492;2022-07-05T13:39:24;31.14;27.91
65470;DHT22;52067;50.710;14.492;2022-07-05T13:41:51;31.86;27.50
65470;DHT22;52067;50.710;14.492;2022-07-05T13:44:18;34.05;25.06
65470;DHT22;52067;50.710;14.492;2022-07-05T13:46:43;33.72;27.19
65470;DHT22;52067;50.710;14.492;2022-07-05T13:49:09;30.18;31.00
65470;DHT22;52067;50.710;14.492;2022-07-05T13:51:34;30.53;29.93
65470;DHT22;52067;50.710;14.492;2022-07-05T13:54:00;29.27;29.40
65470;DHT22;52067;50.710;14.492;2022-07-05T13:56:25;28.67;36.28
65470;DHT22;52067;50.710;14.492;2022-07-05T13:58:54;30.63;33.87
65470;DHT22;52067;50.710;14.492;2022-07-05T14:01:21;32.74;28.00
65470;DHT22;52067;50.710;14.492;2022-07-05T14:03:54;34.70;23.10
65470;DHT22;52067;50.710;14.492;2022-07-05T14:06:21;33.63;27.40
65470;DHT22;52067;50.710;14.492;2022-07-05T14:08:47;34.69;22.88
65470;DHT22;52067;50.710;14.492;2022-07-05T14:11:12;33.94;22.09
65470;DHT22;52067;50.710;14.492;2022-07-05T14:13:38;32.94;25.23
65470;DHT22;52067;50.710;14.492;2022-07-05T14:16:04;31.78;26.23
65470;DHT22;52067;50.710;14.492;2022-07-05T14:18:29;30.82;27.79
65470;DHT22;52067;50.710;14.492;2022-07-05T14:20:55;31.75;28.35
65470;DHT22;52067;50.710;14.492;2022-07-05T14:23:20;33.69;22.45
65470;DHT22;52067;50.710;14.492;2022-07-05T14:25:45;34.53;23.10
65470;DHT22;52067;50.710;14.492;2022-07-05T14:28:11;34.04;22.56
65470;DHT22;52067;50.710;14.492;2022-07-05T14:30:39;32.03;25.37
65470;DHT22;52067;50.710;14.492;2022-07-05T14:33:05;33.45;23.65
65470;DHT22;52067;50.710;14.492;2022-07-05T14:35:32;32.13;26.26
65470;DHT22;52067;50.710;14.492;2022-07-05T14:37:58;33.60;22.90
65470;DHT22;52067;50.710;14.492;2022-07-05T14:40:24;33.26;23.89
65470;DHT22;52067;50.710;14.492;2022-07-05T14:42:50;34.22;22.44
65470;DHT22;52067;50.710;14.492;2022-07-05T14:45:16;30.95;27.79
65470;DHT22;52067;50.710;14.492;2022-07-05T14:47:41;32.77;26.44
65470;DHT22;52067;50.710;14.492;2022-07-05T14:50:07;29.49;30.07
65470;DHT22;52067;50.710;14.492;2022-07-05T14:52:32;29.13;31.97
65470;DHT22;52067;50.710;14.492;2022-07-05T14:54:58;29.18;29.94
65470;DHT22;52067;50.710;14.492;2022-07-05T14:57:23;28.36;31.85
65470;DHT22;52067;50.710;14.492;2022-07-05T14:59:48;29.50;27.60
65470;DHT22;52067;50.710;14.492;2022-07-05T15:02:14;29.37;30.95
65470;DHT22;52067;50.710;14.492;2022-07-05T15:04:40;29.22;31.13
65470;DHT22;52067;50.710;14.492;2022-07-05T15:07:06;29.71;26.58
65470;DHT22;52067;50.710;14.492;2022-07-05T15:09:31;30.49;28.99
65470;DHT22;52067;50.710;14.492;2022-07-05T15:11:57;31.10;27.34
65470;DHT22;52067;50.710;14.492;2022-07-05T15:14:22;31.72;25.08
65470;DHT22;52067;50.710;14.492;2022-07-05T15:16:47;33.54;24.95
65470;DHT22;52067;50.710;14.492;2022-07-05T15:19:13;32.37;29.67
65470;DHT22;52067;50.710;14.492;2022-07-05T15:21:38;28.55;29.17
65470;DHT22;52067;50.710;14.492;2022-07-05T15:24:05;27.18;32.05
65470;DHT22;52067;50.710;14.492;2022-07-05T15:26:30;27.15;32.96
65470;DHT22;52067;50.710;14.492;2022-07-05T15:29:07;26.64;33.15
65470;DHT22;52067;50.710;14.492;2022-07-05T15:31:34;26.35;35.12
65470;DHT22;52067;50.710;14.492;2022-07-05T15:34:00;26.94;32.42
65470;DHT22;52067;50.710;14.492;2022-07-05T15:36:26;26.15;36.59
65470;DHT22;52067;50.710;14.492;2022-07-05T15:38:53;26.45;37.45
65470;DHT22;52067;50.710;14.492;2022-07-05T15:41:18;27.39;35.88